»·PEaware :: N505RT KSAN-KMZJ

N505RT :: KSAN-KMZJ

FLIGHT INFORMATION

Flight Status: Arrived
Operator: Privately registered:
United States
More flights under this callsign
Pilot: Joseph G. (21201)
Aircraft: SOCATA TBM-900
(TBM9)
More flights by this aircraft type
Origin: KSAN San Diego Intl-Lindbergh
United States
Destination: KMZJ Pinal
United States
More flights between these airports :: More routes between these airports
Route: +ZZOOO2 IPL J2 GBN J50 TFD
File this flight plan on PilotEdge
Remarks:
Altitude:
(Current/Filed)
31,000ft
Speed:
(Current/Filed)
230kts
Departed: 15-Aug-19 05:10 PM
Arrived: 15-Aug-19 06:19 PM
Distance/Time
Traveled:
297nm/1:08
Distance/Time
To Go:
Arrived

Flight Plot

Page will automatically refresh every two minutes.


Map Options




Map Legend


Flown Route
Filed Route
Departure Airport
Arrival Airport
Navaid (VOR, NDB)
Fix

Horizontal Profiles

Position Reports

Time Latitude Longitude Heading Altitude Ground
Speed
15-Aug-19 16:52 32.731372 -117.190371 111 13ft 0kts
15-Aug-19 16:53 32.731372 -117.190371 111 13ft 0kts
15-Aug-19 16:54 32.731372 -117.190371 111 13ft 0kts
15-Aug-19 16:55 32.731372 -117.190371 111 13ft 0kts
15-Aug-19 16:56 32.731372 -117.190371 111 13ft 0kts
15-Aug-19 16:57 32.731372 -117.190371 111 13ft 0kts
15-Aug-19 16:58 32.731372 -117.190371 111 13ft 0kts
15-Aug-19 16:59 32.731372 -117.190371 111 13ft 0kts
15-Aug-19 17:00 32.731372 -117.190371 111 13ft 0kts
15-Aug-19 17:01 32.731372 -117.190371 111 13ft 0kts
15-Aug-19 17:02 32.731372 -117.190371 111 13ft 0kts
15-Aug-19 17:03 32.731372 -117.190371 111 13ft 0kts
15-Aug-19 17:04 32.731372 -117.190371 111 13ft 0kts
15-Aug-19 17:05 32.731372 -117.190371 111 13ft 0kts
15-Aug-19 17:06 32.731372 -117.190371 111 13ft 0kts
15-Aug-19 17:06 32.731529 -117.190314 327 13ft 2kts
15-Aug-19 17:08 32.731647 -117.186102 106 13ft 28kts
15-Aug-19 17:08 32.732491 -117.185239 285 15ft 0kts
15-Aug-19 17:10 32.740425 -117.219008 287 1172ft 136kts
15-Aug-19 17:11 32.751655 -117.262896 283 3345ft 144kts
15-Aug-19 17:11 32.741869 -117.291046 173 5190ft 136kts
15-Aug-19 17:12 32.704793 -117.278381 162 7389ft 141kts
15-Aug-19 17:13 32.667947 -117.262310 161 9542ft 144kts
15-Aug-19 17:14 32.632420 -117.240596 111 11762ft 157kts
15-Aug-19 17:15 32.626376 -117.187617 98 14167ft 166kts
15-Aug-19 17:16 32.621330 -117.132266 96 16387ft 172kts
15-Aug-19 17:17 32.616143 -117.074463 95 18370ft 179kts
15-Aug-19 17:18 32.610794 -117.014953 95 20126ft 186kts
15-Aug-19 17:19 32.605207 -116.953315 95 21735ft 195kts
15-Aug-19 17:20 32.607431 -116.887393 74 23519ft 211kts
15-Aug-19 17:21 32.620573 -116.821693 74 25534ft 207kts
15-Aug-19 17:22 32.632130 -116.753185 81 27347ft 217kts
15-Aug-19 17:24 32.640566 -116.667831 81 29225ft 228kts
15-Aug-19 17:24 32.646809 -116.603943 81 30445ft 235kts
15-Aug-19 17:25 32.654790 -116.521970 82 31046ft 277kts
15-Aug-19 17:26 32.664212 -116.423771 81 30985ft 317kts
15-Aug-19 17:27 32.674485 -116.316443 82 30963ft 334kts
15-Aug-19 17:28 32.684852 -116.206804 82 30853ft 341kts
15-Aug-19 17:29 32.695419 -116.093958 82 30792ft 340kts
15-Aug-19 17:30 32.705870 -115.981390 82 30807ft 341kts
15-Aug-19 17:31 32.716273 -115.868836 81 30774ft 342kts
15-Aug-19 17:32 32.726594 -115.756160 82 30767ft 344kts
15-Aug-19 17:33 32.737042 -115.640587 81 30168ft 354kts
15-Aug-19 17:34 32.747399 -115.525149 81 29429ft 342kts
15-Aug-19 17:35 32.751220 -115.412338 86 28806ft 341kts
15-Aug-19 17:36 32.752579 -115.356220 86 28821ft 342kts
15-Aug-19 17:37 32.754851 -115.257725 87 28807ft 340kts
15-Aug-19 17:38 32.757334 -115.145131 87 28770ft 339kts
15-Aug-19 17:39 32.759795 -115.032347 87 28792ft 338kts
15-Aug-19 17:40 32.762097 -114.920685 87 28776ft 335kts
15-Aug-19 17:41 32.764247 -114.810615 87 28789ft 332kts
15-Aug-19 17:42 32.766364 -114.700440 87 28815ft 333kts
15-Aug-19 17:43 32.768286 -114.590155 87 28827ft 334kts
15-Aug-19 17:44 32.769871 -114.479144 87 28807ft 335kts
15-Aug-19 17:45 32.771332 -114.368563 87 28835ft 334kts
15-Aug-19 17:46 32.772728 -114.257273 87 28849ft 336kts
15-Aug-19 17:47 32.774015 -114.145771 88 28813ft 337kts
15-Aug-19 17:48 32.775224 -114.033907 87 28821ft 335kts
15-Aug-19 17:49 32.782930 -113.922972 78 28844ft 334kts
15-Aug-19 17:50 32.798669 -113.813483 78 28853ft 334kts
15-Aug-19 17:51 32.814299 -113.703911 78 28819ft 335kts
15-Aug-19 17:52 32.829680 -113.595098 78 28366ft 321kts
15-Aug-19 17:53 32.844496 -113.490334 78 25906ft 318kts
15-Aug-19 17:54 32.858655 -113.388921 79 23864ft 302kts
15-Aug-19 17:55 32.872585 -113.288889 80 23843ft 312kts
15-Aug-19 17:56 32.887030 -113.184434 80 23845ft 319kts
15-Aug-19 17:57 32.901489 -113.079203 80 23844ft 320kts
15-Aug-19 17:58 32.915855 -112.973986 80 23844ft 321kts
15-Aug-19 17:59 32.930196 -112.868258 80 23844ft 321kts
15-Aug-19 18:00 32.944389 -112.762926 80 23845ft 320kts
15-Aug-19 18:01 32.954956 -112.657235 96 23835ft 320kts
15-Aug-19 18:02 32.945256 -112.551042 96 23846ft 320kts
15-Aug-19 18:03 32.935689 -112.445133 96 23846ft 321kts
15-Aug-19 18:04 32.926015 -112.338955 96 23844ft 321kts
15-Aug-19 18:05 32.916281 -112.233193 96 23860ft 321kts
15-Aug-19 18:06 32.906683 -112.129840 96 23063ft 297kts
15-Aug-19 18:07 32.897621 -112.033006 96 19156ft 291kts
15-Aug-19 18:08 32.888692 -111.938477 96 14709ft 285kts
15-Aug-19 18:09 32.853669 -111.858432 127 11388ft 272kts
15-Aug-19 18:10 32.808554 -111.788064 127 9978ft 267kts
15-Aug-19 18:11 32.762994 -111.717121 127 9974ft 271kts
15-Aug-19 18:12 32.716859 -111.645414 127 9782ft 273kts
15-Aug-19 18:13 32.671044 -111.574333 127 8769ft 267kts
15-Aug-19 18:14 32.625826 -111.504323 127 7638ft 269kts
15-Aug-19 18:15 32.580976 -111.435080 128 6924ft 243kts
15-Aug-19 18:16 32.538666 -111.374233 111 4251ft 223kts
15-Aug-19 18:17 32.513043 -111.328891 129 1900ft 119kts
15-Aug-19 18:18 32.504595 -111.317352 13 1890ft 7kts
15-Aug-19 18:19 32.504814 -111.317349 357 1890ft 1kts
15-Aug-19 18:20 32.507329 -111.318325 56 1890ft 9kts
15-Aug-19 18:21 32.507390 -111.317873 135 1890ft 0kts
15-Aug-19 18:22 32.507390 -111.317873 135 1890ft 0kts
15-Aug-19 18:23 32.507390 -111.317873 135 1890ft 0kts
15-Aug-19 18:24 32.507390 -111.317873 135 1890ft 0kts
15-Aug-19 18:25 32.507390 -111.317873 135 1890ft 0kts

Navigation Log

Ident Type
Flight plan parsing failed, navigation log unavailable